createdAt,value
2023-02-13T00:00:42.501Z,6.90
2023-02-13T00:03:32.589Z,6.90
2023-02-13T00:06:42.908Z,6.90
2023-02-13T00:12:59.111Z,6.80
2023-02-13T00:19:01.267Z,6.80
2023-02-13T00:31:38.744Z,6.70
2023-02-13T00:34:40.491Z,6.70
2023-02-13T00:37:34.770Z,6.60
2023-02-13T00:40:21.921Z,6.60
2023-02-13T00:43:00.292Z,6.60
2023-02-13T00:49:17.645Z,6.60
2023-02-13T00:51:56.157Z,6.60
2023-02-13T00:57:25.409Z,6.60
2023-02-13T00:59:55.683Z,6.60
2023-02-13T01:02:27.635Z,6.60
2023-02-13T01:05:08.516Z,6.60
2023-02-13T01:10:28.849Z,6.60
2023-02-13T01:14:03.577Z,6.60
2023-02-13T01:16:53.219Z,6.60
2023-02-13T01:19:40.463Z,6.50
2023-02-13T01:22:57.541Z,6.60
2023-02-13T01:25:30.772Z,6.50
2023-02-13T01:29:27.118Z,6.60
2023-02-13T01:36:33.796Z,6.60
2023-02-13T01:43:19.408Z,6.50
2023-02-13T01:45:59.796Z,6.50
2023-02-13T01:48:59.840Z,6.50
2023-02-13T02:02:26.233Z,6.40
2023-02-13T02:15:54.000Z,6.40
2023-02-13T02:18:56.991Z,6.40
2023-02-13T02:29:44.573Z,6.40
2023-02-13T02:33:10.318Z,6.30
2023-02-13T02:44:14.169Z,6.30
2023-02-13T02:47:18.217Z,6.20
2023-02-13T02:50:21.342Z,6.30
2023-02-13T02:53:54.494Z,6.30
2023-02-13T02:56:51.221Z,6.30
2023-02-13T03:03:40.760Z,6.30
2023-02-13T03:07:22.433Z,6.20
2023-02-13T03:10:34.594Z,6.30
2023-02-13T03:13:52.143Z,6.30
2023-02-13T03:16:51.185Z,6.20
2023-02-13T03:20:33.731Z,6.20
2023-02-13T03:26:59.595Z,6.10
2023-02-13T03:34:22.447Z,6.20
2023-02-13T03:37:42.435Z,6.20
2023-02-13T03:44:39.065Z,6.20
2023-02-13T03:47:56.365Z,6.20
2023-02-13T03:55:03.686Z,6.10
2023-02-13T04:01:43.851Z,6.00
2023-02-13T04:05:23.633Z,6.00
2023-02-13T04:08:47.542Z,6.00
2023-02-13T04:12:35.481Z,6.00
2023-02-13T04:19:00.387Z,5.90
2023-02-13T04:22:12.804Z,5.90
2023-02-13T04:24:59.062Z,5.90
2023-02-13T04:27:50.669Z,5.90
2023-02-13T04:30:27.948Z,5.90
2023-02-13T04:33:08.874Z,5.90
2023-02-13T04:35:52.821Z,5.90
2023-02-13T04:38:22.852Z,5.90
2023-02-13T04:40:59.452Z,5.80
2023-02-13T04:43:40.727Z,5.90
2023-02-13T04:50:49.361Z,5.90
2023-02-13T04:53:38.358Z,5.90
2023-02-13T04:56:08.755Z,5.80
2023-02-13T04:58:39.334Z,5.80
2023-02-13T05:01:19.381Z,5.80
2023-02-13T05:04:00.699Z,5.80
2023-02-13T05:06:35.046Z,5.70
2023-02-13T05:09:17.057Z,5.70
2023-02-13T05:11:58.359Z,5.60
2023-02-13T05:14:37.980Z,5.50
2023-02-13T05:17:14.542Z,5.40
2023-02-13T05:19:49.644Z,5.30
2023-02-13T05:22:41.343Z,5.20
2023-02-13T05:26:26.595Z,5.20
2023-02-13T05:35:08.424Z,4.90
2023-02-13T05:37:38.046Z,4.90
2023-02-13T05:40:11.052Z,4.80
2023-02-13T05:42:59.857Z,4.70
2023-02-13T05:45:30.456Z,4.70
2023-02-13T05:48:30.115Z,4.60
2023-02-13T05:51:25.623Z,4.60
2023-02-13T05:53:59.840Z,4.50
2023-02-13T05:56:51.592Z,4.50
2023-02-13T05:59:48.434Z,4.40
2023-02-13T06:02:26.056Z,4.40
2023-02-13T06:05:13.435Z,4.40
2023-02-13T06:08:14.012Z,4.40
2023-02-13T06:10:45.172Z,4.40
2023-02-13T06:13:15.097Z,4.30
2023-02-13T06:16:06.144Z,4.30
2023-02-13T06:22:34.743Z,4.30
2023-02-13T06:25:10.606Z,4.20
2023-02-13T06:28:11.374Z,4.20
2023-02-13T06:30:44.809Z,4.10
2023-02-13T06:33:16.083Z,4.10
2023-02-13T06:35:43.572Z,4.10
2023-02-13T06:38:11.930Z,4.00
2023-02-13T06:40:44.190Z,4.10
2023-02-13T06:43:11.327Z,4.10
2023-02-13T06:45:38.378Z,4.10
2023-02-13T06:48:05.576Z,4.10
2023-02-13T06:50:33.081Z,4.20
2023-02-13T06:53:00.576Z,4.20
2023-02-13T06:55:28.140Z,4.30
2023-02-13T06:57:55.420Z,4.20
2023-02-13T07:00:27.221Z,4.30
2023-02-13T07:03:12.994Z,4.30
2023-02-13T07:05:55.305Z,4.40
2023-02-13T07:08:27.596Z,4.50
2023-02-13T07:10:55.288Z,4.50
2023-02-13T07:13:31.634Z,4.60
2023-02-13T07:16:08.693Z,4.70
2023-02-13T07:18:38.699Z,4.60
2023-02-13T07:21:06.411Z,4.60
2023-02-13T07:23:33.836Z,4.70
2023-02-13T07:26:01.923Z,4.70
2023-02-13T07:28:31.605Z,4.80
2023-02-13T07:31:04.602Z,4.90
2023-02-13T07:33:33.176Z,4.90
2023-02-13T07:36:00.393Z,5.00
2023-02-13T07:38:27.319Z,5.10
2023-02-13T07:40:54.531Z,5.20
2023-02-13T07:43:23.139Z,5.30
2023-02-13T07:45:52.743Z,5.40
2023-02-13T07:48:19.695Z,5.60
2023-02-13T07:50:46.851Z,5.70
2023-02-13T07:53:15.192Z,5.80
2023-02-13T07:55:42.474Z,5.80
2023-02-13T07:58:09.887Z,5.90
2023-02-13T08:00:38.338Z,6.00
2023-02-13T08:03:06.160Z,6.10
2023-02-13T08:05:43.679Z,6.20
2023-02-13T08:08:11.492Z,6.30
2023-02-13T08:11:07.105Z,6.40
2023-02-13T08:13:38.084Z,6.50
2023-02-13T08:16:11.710Z,6.50
2023-02-13T08:18:47.760Z,6.60
2023-02-13T08:27:50.238Z,6.90
2023-02-13T08:30:17.220Z,6.90
2023-02-13T08:32:53.768Z,7.00
2023-02-13T08:35:22.851Z,7.00
2023-02-13T08:37:49.962Z,7.20
2023-02-13T08:40:16.981Z,7.20
2023-02-13T08:42:43.924Z,7.20
2023-02-13T08:45:11.784Z,7.30
2023-02-13T08:47:41.153Z,7.30
2023-02-13T08:50:08.410Z,7.40
2023-02-13T08:52:35.530Z,7.50
2023-02-13T08:55:03.654Z,7.50
2023-02-13T08:57:31.433Z,7.60
2023-02-13T08:59:58.385Z,7.80
2023-02-13T09:02:25.495Z,7.90
2023-02-13T09:04:52.499Z,8.00
2023-02-13T09:07:19.391Z,8.10
2023-02-13T09:09:46.554Z,8.20
2023-02-13T09:12:13.574Z,8.30
2023-02-13T09:14:41.070Z,8.30
2023-02-13T09:17:35.058Z,8.50
2023-02-13T09:20:09.356Z,8.60
2023-02-13T09:22:38.108Z,8.70
2023-02-13T09:25:09.688Z,8.80
2023-02-13T09:30:26.558Z,9.00
2023-02-13T09:32:58.022Z,9.20
2023-02-13T09:35:25.315Z,9.20
2023-02-13T09:37:52.252Z,9.30
2023-02-13T09:40:34.762Z,9.50
2023-02-13T09:43:15.798Z,9.60
2023-02-13T09:45:45.601Z,9.60
2023-02-13T09:48:25.207Z,9.70
2023-02-13T09:50:52.339Z,9.80
2023-02-13T09:53:24.891Z,9.90
2023-02-13T09:56:14.785Z,10.00
2023-02-13T09:59:30.695Z,10.00
2023-02-13T10:02:03.828Z,10.10
2023-02-13T10:04:49.759Z,10.20
2023-02-13T10:07:46.091Z,10.40
2023-02-13T10:10:48.419Z,10.40
2023-02-13T10:13:35.468Z,10.50
2023-02-13T10:16:14.589Z,10.50
2023-02-13T10:18:49.459Z,10.70
2023-02-13T10:21:23.012Z,10.70
2023-02-13T10:24:01.148Z,10.80
2023-02-13T10:26:48.639Z,10.70
2023-02-13T10:29:48.431Z,10.80
2023-02-13T10:32:22.289Z,10.90
2023-02-13T10:34:53.205Z,11.00
2023-02-13T10:37:22.599Z,11.10
2023-02-13T10:39:51.805Z,11.20
2023-02-13T10:42:56.352Z,11.20
2023-02-13T10:45:53.504Z,11.30
2023-02-13T10:48:32.395Z,11.40
2023-02-13T10:51:47.596Z,11.60
2023-02-13T10:54:38.824Z,11.80
2023-02-13T10:57:20.370Z,11.80
2023-02-13T10:59:53.115Z,11.80
2023-02-13T11:02:29.735Z,11.90
2023-02-13T11:05:07.670Z,11.90
2023-02-13T11:07:35.451Z,12.00
2023-02-13T11:10:14.377Z,12.10
2023-02-13T11:12:41.536Z,12.10
2023-02-13T11:15:20.368Z,12.10
2023-02-13T11:17:49.676Z,12.10
2023-02-13T11:20:36.860Z,12.10
2023-02-13T11:23:25.708Z,12.20
2023-02-13T11:26:01.957Z,12.30
2023-02-13T11:28:32.613Z,12.40
2023-02-13T11:31:22.548Z,12.40
2023-02-13T11:33:49.842Z,12.50
2023-02-13T11:36:29.026Z,12.40
2023-02-13T11:39:06.921Z,12.50
2023-02-13T11:41:43.755Z,12.50
2023-02-13T11:44:23.348Z,12.60
2023-02-13T11:46:52.849Z,12.60
2023-02-13T11:49:22.749Z,12.70
2023-02-13T11:51:51.361Z,12.70
2023-02-13T11:54:24.404Z,12.70
2023-02-13T11:57:14.880Z,12.80
2023-02-13T11:59:44.765Z,12.90
2023-02-13T12:02:20.826Z,13.00
2023-02-13T12:04:54.367Z,13.00
2023-02-13T12:07:29.452Z,13.10
2023-02-13T12:10:25.545Z,13.00
2023-02-13T12:12:53.465Z,13.00
2023-02-13T12:15:35.362Z,13.10
2023-02-13T12:18:08.409Z,13.10
2023-02-13T12:20:53.342Z,13.30
2023-02-13T12:23:40.020Z,13.30
2023-02-13T12:26:25.179Z,13.40
2023-02-13T12:29:10.410Z,13.50
2023-02-13T12:31:49.214Z,13.60
2023-02-13T12:34:39.569Z,13.80
2023-02-13T12:37:06.447Z,14.00
2023-02-13T12:39:35.788Z,13.90
2023-02-13T12:42:02.665Z,14.00
2023-02-13T12:45:13.223Z,14.10
2023-02-13T12:48:09.541Z,14.00
2023-02-13T12:51:07.459Z,13.90
2023-02-13T12:54:02.437Z,14.00
2023-02-13T12:56:57.040Z,14.10
2023-02-13T12:59:49.189Z,14.10
2023-02-13T13:02:47.880Z,14.10
2023-02-13T13:05:41.010Z,14.20
2023-02-13T13:08:17.742Z,14.20
2023-02-13T13:11:04.460Z,14.20
2023-02-13T13:14:01.007Z,14.10
2023-02-13T13:16:53.831Z,14.20
2023-02-13T13:19:29.879Z,14.10
2023-02-13T13:22:00.953Z,14.20
2023-02-13T13:24:50.567Z,14.30
2023-02-13T13:27:28.095Z,14.40
2023-02-13T13:30:00.067Z,14.40
2023-02-13T13:32:28.884Z,14.40
2023-02-13T13:34:57.879Z,14.50
2023-02-13T13:37:43.219Z,14.50
2023-02-13T14:09:07.702Z,15.00
2023-02-13T14:18:39.410Z,14.80
2023-02-13T14:22:01.927Z,15.00
2023-02-13T14:25:02.373Z,15.10
2023-02-13T14:27:59.385Z,15.30
2023-02-13T14:30:39.791Z,15.40
2023-02-13T14:33:21.009Z,15.60
2023-02-13T14:36:00.857Z,15.50
2023-02-13T14:38:28.762Z,15.70
2023-02-13T14:40:55.900Z,15.80
2023-02-13T14:43:31.905Z,16.00
2023-02-13T14:46:41.273Z,16.20
2023-02-13T14:49:13.822Z,16.50
2023-02-13T14:51:47.241Z,16.70
2023-02-13T14:54:34.791Z,16.90
2023-02-13T14:57:07.322Z,16.80
2023-02-13T14:59:37.884Z,16.30
2023-02-13T15:02:27.138Z,15.60
2023-02-13T15:05:08.512Z,14.90
2023-02-13T15:07:47.665Z,14.40
2023-02-13T15:10:42.653Z,14.00
2023-02-13T15:13:28.223Z,13.70
2023-02-13T15:16:10.359Z,13.50
2023-02-13T15:18:40.436Z,13.30
2023-02-13T15:21:15.124Z,13.20
2023-02-13T15:23:52.104Z,13.10
2023-02-13T15:26:24.694Z,13.00
2023-02-13T15:29:03.705Z,12.90
2023-02-13T15:31:35.585Z,12.80
2023-02-13T15:34:03.877Z,12.70
2023-02-13T16:29:44.374Z,11.40
2023-02-13T16:32:42.937Z,11.20
2023-02-13T16:41:38.594Z,10.80
2023-02-13T16:44:08.871Z,10.60
2023-02-13T16:52:42.102Z,10.30
2023-02-13T16:55:29.596Z,10.20
2023-02-13T16:58:05.720Z,10.10
2023-02-13T17:00:33.204Z,10.00
2023-02-13T17:03:02.530Z,9.90
2023-02-13T17:05:45.048Z,9.90
2023-02-13T17:08:14.562Z,9.80
2023-02-13T17:11:20.184Z,9.80
2023-02-13T17:13:49.655Z,9.70
2023-02-13T17:16:25.927Z,9.60
2023-02-13T17:18:56.499Z,9.50
2023-02-13T17:21:26.105Z,9.50
2023-02-13T17:23:56.032Z,9.50
2023-02-13T17:29:45.839Z,9.40
2023-02-13T17:32:27.393Z,9.40
2023-02-13T17:34:54.730Z,9.20
2023-02-13T17:37:25.135Z,9.10
2023-02-13T17:39:55.224Z,9.10
2023-02-13T17:42:28.261Z,9.00
2023-02-13T17:44:59.538Z,9.00
2023-02-13T17:47:30.286Z,9.00
2023-02-13T17:50:09.582Z,8.90
2023-02-13T17:52:38.525Z,8.90
2023-02-13T17:55:13.816Z,8.90
2023-02-13T17:57:50.236Z,8.90
2023-02-13T18:00:20.355Z,8.90
2023-02-13T18:02:49.613Z,8.90
2023-02-13T18:05:21.728Z,8.80
2023-02-13T18:07:55.511Z,8.80
2023-02-13T18:13:24.235Z,8.70
2023-02-13T18:16:00.180Z,8.70
2023-02-13T18:21:14.358Z,8.60
2023-02-13T18:23:54.425Z,8.60
2023-02-13T18:26:55.949Z,8.60
2023-02-13T18:29:26.192Z,8.60
2023-02-13T18:32:00.440Z,8.50
2023-02-13T18:34:27.811Z,8.50
2023-02-13T18:36:56.881Z,8.40
2023-02-13T18:39:29.548Z,8.40
2023-02-13T18:41:56.770Z,8.40
2023-02-13T18:44:29.224Z,8.40
2023-02-13T18:47:01.611Z,8.30
2023-02-13T18:49:32.886Z,8.30
2023-02-13T18:52:10.788Z,8.20
2023-02-13T18:54:41.733Z,8.30
2023-02-13T18:57:24.636Z,8.30
2023-02-13T18:59:54.606Z,8.30
2023-02-13T19:02:40.190Z,8.30
2023-02-13T19:05:10.761Z,8.20
2023-02-13T19:07:39.484Z,8.30
2023-02-13T19:10:09.986Z,8.20
2023-02-13T19:12:39.245Z,8.20
2023-02-13T19:15:08.874Z,8.10
2023-02-13T19:17:38.829Z,8.10
2023-02-13T19:20:13.804Z,8.10
2023-02-13T19:22:54.745Z,8.10
2023-02-13T19:25:24.859Z,8.10
2023-02-13T19:27:51.873Z,8.00
2023-02-13T19:30:28.658Z,8.00
2023-02-13T19:35:41.828Z,8.00
2023-02-13T19:38:11.775Z,8.00
2023-02-13T19:43:33.892Z,8.00
2023-02-13T19:53:09.843Z,7.80
2023-02-13T19:56:12.196Z,7.80
2023-02-13T20:02:18.285Z,7.80
2023-02-13T20:04:48.529Z,7.80
2023-02-13T20:07:21.818Z,7.70
2023-02-13T20:09:51.622Z,7.70
2023-02-13T20:12:21.240Z,7.70
2023-02-13T20:14:53.896Z,7.70
2023-02-13T20:17:27.165Z,7.70
2023-02-13T20:20:04.706Z,7.70
2023-02-13T20:22:35.323Z,7.70
2023-02-13T20:25:02.753Z,7.70
2023-02-13T20:30:06.857Z,7.60
2023-02-13T20:32:41.426Z,7.60
2023-02-13T20:35:10.971Z,7.50
2023-02-13T20:37:42.799Z,7.60
2023-02-13T20:40:17.942Z,7.50
2023-02-13T20:43:06.796Z,7.50
2023-02-13T20:45:35.827Z,7.50
2023-02-13T20:48:11.933Z,7.60
2023-02-13T20:50:41.912Z,7.50
2023-02-13T20:53:10.262Z,7.50
2023-02-13T20:55:40.913Z,7.40
2023-02-13T20:58:11.902Z,7.40
2023-02-13T21:00:46.402Z,7.40
2023-02-13T21:03:16.297Z,7.40
2023-02-13T21:05:44.963Z,7.40
2023-02-13T21:08:14.703Z,7.40
2023-02-13T21:13:26.689Z,7.40
2023-02-13T21:15:59.081Z,7.40
2023-02-13T21:18:30.099Z,7.40
2023-02-13T21:20:57.609Z,7.40
2023-02-13T21:23:37.233Z,7.40
2023-02-13T21:26:13.445Z,7.30
2023-02-13T21:28:42.100Z,7.30
2023-02-13T21:31:16.834Z,7.30
2023-02-13T21:33:45.709Z,7.20
2023-02-13T21:36:14.132Z,7.20
2023-02-13T21:38:41.964Z,7.20
2023-02-13T21:41:17.026Z,7.20
2023-02-13T21:43:52.036Z,7.20
2023-02-13T21:46:43.029Z,7.20
2023-02-13T21:49:15.516Z,7.10
2023-02-13T21:51:43.116Z,7.00
2023-02-13T21:54:11.566Z,7.00
2023-02-13T21:56:42.049Z,7.00
2023-02-13T21:59:16.532Z,7.00
2023-02-13T22:01:48.831Z,7.00
2023-02-13T22:04:20.695Z,7.10
2023-02-13T22:06:58.367Z,7.10
2023-02-13T22:09:31.036Z,7.10
2023-02-13T22:12:00.600Z,7.10
2023-02-13T22:14:38.129Z,7.00
2023-02-13T22:17:06.484Z,7.00
2023-02-13T22:19:36.756Z,7.10
2023-02-13T22:22:06.459Z,7.00
2023-02-13T22:24:34.181Z,7.10
2023-02-13T22:27:07.126Z,7.00
2023-02-13T22:29:35.749Z,7.00
2023-02-13T22:32:03.470Z,6.90
2023-02-13T22:34:30.977Z,6.90
2023-02-13T22:36:58.279Z,6.90
2023-02-13T22:39:29.154Z,6.90
2023-02-13T22:41:57.199Z,7.00
2023-02-13T22:44:24.535Z,7.00
2023-02-13T22:46:52.359Z,7.00
2023-02-13T22:49:19.537Z,7.00
2023-02-13T22:51:46.566Z,7.00
2023-02-13T22:54:13.751Z,7.00
2023-02-13T22:56:44.382Z,7.00
2023-02-13T22:59:14.055Z,7.00
2023-02-13T23:01:45.226Z,6.90
2023-02-13T23:04:15.240Z,6.90
2023-02-13T23:07:21.561Z,6.90
2023-02-13T23:10:33.253Z,6.80
2023-02-13T23:16:53.687Z,6.80
2023-02-13T23:26:36.425Z,6.80
2023-02-13T23:32:57.506Z,6.80
2023-02-13T23:37:02.039Z,6.70
